sensor_id;sensor_type;location;lat;lon;timestamp;temperature;humidity
37310;DHT22;23195;47.744;7.358;2022-08-04T00:00:25;23.20;99.90
37310;DHT22;23195;47.744;7.358;2022-08-04T00:06:03;23.10;99.90
37310;DHT22;23195;47.744;7.358;2022-08-04T00:08:47;22.90;99.90
37310;DHT22;23195;47.744;7.358;2022-08-04T00:14:13;23.00;99.90
37310;DHT22;23195;47.744;7.358;2022-08-04T00:17:02;23.00;99.90
37310;DHT22;23195;47.744;7.358;2022-08-04T00:20:05;23.50;99.90
37310;DHT22;23195;47.744;7.358;2022-08-04T00:22:34;22.90;99.90
37310;DHT22;23195;47.744;7.358;2022-08-04T00:25:15;23.00;99.90
37310;DHT22;23195;47.744;7.358;2022-08-04T00:27:44;22.80;99.90
37310;DHT22;23195;47.744;7.358;2022-08-04T00:30:21;22.80;99.90
37310;DHT22;23195;47.744;7.358;2022-08-04T00:32:47;22.70;99.90
37310;DHT22;23195;47.744;7.358;2022-08-04T00:35:14;22.70;99.90
37310;DHT22;23195;47.744;7.358;2022-08-04T00:37:52;22.70;99.90
37310;DHT22;23195;47.744;7.358;2022-08-04T00:51:47;22.50;99.90
37310;DHT22;23195;47.744;7.358;2022-08-04T01:00:10;22.40;99.90
37310;DHT22;23195;47.744;7.358;2022-08-04T01:05:51;22.40;99.90
37310;DHT22;23195;47.744;7.358;2022-08-04T01:11:02;22.40;99.90
37310;DHT22;23195;47.744;7.358;2022-08-04T01:14:15;22.20;99.90
37310;DHT22;23195;47.744;7.358;2022-08-04T01:16:50;22.20;99.90
37310;DHT22;23195;47.744;7.358;2022-08-04T01:30:31;22.10;99.90
37310;DHT22;23195;47.744;7.358;2022-08-04T01:33:08;22.10;99.90
37310;DHT22;23195;47.744;7.358;2022-08-04T01:35:50;22.00;99.90
37310;DHT22;23195;47.744;7.358;2022-08-04T01:38:35;22.00;99.90
37310;DHT22;23195;47.744;7.358;2022-08-04T01:41:08;21.90;99.90
37310;DHT22;23195;47.744;7.358;2022-08-04T01:43:44;21.90;99.90
37310;DHT22;23195;47.744;7.358;2022-08-04T01:46:13;21.70;99.90
37310;DHT22;23195;47.744;7.358;2022-08-04T01:48:45;21.80;99.90
37310;DHT22;23195;47.744;7.358;2022-08-04T01:51:13;21.80;99.90
37310;DHT22;23195;47.744;7.358;2022-08-04T01:53:41;21.80;99.90
37310;DHT22;23195;47.744;7.358;2022-08-04T01:56:09;21.70;99.90
37310;DHT22;23195;47.744;7.358;2022-08-04T01:58:39;21.80;99.90
37310;DHT22;23195;47.744;7.358;2022-08-04T02:01:07;21.70;99.90
37310;DHT22;23195;47.744;7.358;2022-08-04T02:03:44;21.70;99.90
37310;DHT22;23195;47.744;7.358;2022-08-04T02:11:23;21.70;99.90
37310;DHT22;23195;47.744;7.358;2022-08-04T02:13:56;21.60;99.90
37310;DHT22;23195;47.744;7.358;2022-08-04T02:16:52;21.60;99.90
37310;DHT22;23195;47.744;7.358;2022-08-04T02:19:41;21.70;99.90
37310;DHT22;23195;47.744;7.358;2022-08-04T02:22:18;21.70;99.90
37310;DHT22;23195;47.744;7.358;2022-08-04T02:24:49;21.50;99.90
37310;DHT22;23195;47.744;7.358;2022-08-04T02:27:27;21.50;99.90
37310;DHT22;23195;47.744;7.358;2022-08-04T02:30:02;21.50;99.90
37310;DHT22;23195;47.744;7.358;2022-08-04T02:32:41;21.50;99.90
37310;DHT22;23195;47.744;7.358;2022-08-04T02:35:14;21.50;99.90
37310;DHT22;23195;47.744;7.358;2022-08-04T02:38:14;21.50;99.90
37310;DHT22;23195;47.744;7.358;2022-08-04T02:40:42;21.50;99.90
37310;DHT22;23195;47.744;7.358;2022-08-04T02:43:14;21.40;99.90
37310;DHT22;23195;47.744;7.358;2022-08-04T02:45:45;21.40;99.90
37310;DHT22;23195;47.744;7.358;2022-08-04T02:48:16;21.40;99.90
37310;DHT22;23195;47.744;7.358;2022-08-04T02:50:43;21.40;99.90
37310;DHT22;23195;47.744;7.358;2022-08-04T02:53:14;21.40;99.90
37310;DHT22;23195;47.744;7.358;2022-08-04T02:55:47;21.40;99.90
37310;DHT22;23195;47.744;7.358;2022-08-04T02:58:22;21.40;99.90
37310;DHT22;23195;47.744;7.358;2022-08-04T03:00:53;21.40;99.90
37310;DHT22;23195;47.744;7.358;2022-08-04T03:06:50;21.40;99.90
37310;DHT22;23195;47.744;7.358;2022-08-04T03:20:48;21.20;99.90
37310;DHT22;23195;47.744;7.358;2022-08-04T03:23:35;21.10;99.90
37310;DHT22;23195;47.744;7.358;2022-08-04T03:26:30;21.20;99.90
37310;DHT22;23195;47.744;7.358;2022-08-04T03:32:13;21.10;99.90
37310;DHT22;23195;47.744;7.358;2022-08-04T03:35:25;21.00;99.90
37310;DHT22;23195;47.744;7.358;2022-08-04T03:38:17;21.00;99.90
37310;DHT22;23195;47.744;7.358;2022-08-04T03:41:20;21.00;99.90
37310;DHT22;23195;47.744;7.358;2022-08-04T04:20:03;20.60;99.90
37310;DHT22;23195;47.744;7.358;2022-08-04T04:23:27;20.60;99.90
37310;DHT22;23195;47.744;7.358;2022-08-04T04:37:31;20.40;99.90
37310;DHT22;23195;47.744;7.358;2022-08-04T05:00:03;24.70;99.90
37310;DHT22;23195;47.744;7.358;2022-08-04T05:15:58;29.70;99.90
37310;DHT22;23195;47.744;7.358;2022-08-04T05:18:52;30.40;99.90
37310;DHT22;23195;47.744;7.358;2022-08-04T05:21:55;30.90;97.50
37310;DHT22;23195;47.744;7.358;2022-08-04T05:24:47;31.60;96.10
37310;DHT22;23195;47.744;7.358;2022-08-04T05:30:34;33.00;91.40
37310;DHT22;23195;47.744;7.358;2022-08-04T05:33:42;33.40;89.80
37310;DHT22;23195;47.744;7.358;2022-08-04T05:36:35;34.00;86.80
37310;DHT22;23195;47.744;7.358;2022-08-04T05:42:35;35.10;78.80
37310;DHT22;23195;47.744;7.358;2022-08-04T05:52:46;35.50;74.20
37310;DHT22;23195;47.744;7.358;2022-08-04T05:59:33;33.60;76.40
37310;DHT22;23195;47.744;7.358;2022-08-04T06:02:19;32.10;77.80
37310;DHT22;23195;47.744;7.358;2022-08-04T06:07:40;30.90;82.70
37310;DHT22;23195;47.744;7.358;2022-08-04T06:10:06;30.20;85.60
37310;DHT22;23195;47.744;7.358;2022-08-04T06:12:54;29.60;88.10
37310;DHT22;23195;47.744;7.358;2022-08-04T06:15:23;29.00;90.20
37310;DHT22;23195;47.744;7.358;2022-08-04T06:17:57;28.70;90.70
37310;DHT22;23195;47.744;7.358;2022-08-04T06:20:33;28.40;90.40
37310;DHT22;23195;47.744;7.358;2022-08-04T06:23:06;27.80;91.60
37310;DHT22;23195;47.744;7.358;2022-08-04T06:25:47;27.20;94.50
37310;DHT22;23195;47.744;7.358;2022-08-04T06:28:22;26.90;95.50
37310;DHT22;23195;47.744;7.358;2022-08-04T06:30:49;26.80;96.20
37310;DHT22;23195;47.744;7.358;2022-08-04T06:33:23;26.70;96.80
37310;DHT22;23195;47.744;7.358;2022-08-04T06:36:06;26.60;97.30
37310;DHT22;23195;47.744;7.358;2022-08-04T06:38:34;26.50;97.80
37310;DHT22;23195;47.744;7.358;2022-08-04T06:41:10;26.50;98.50
37310;DHT22;23195;47.744;7.358;2022-08-04T06:43:40;26.40;98.90
37310;DHT22;23195;47.744;7.358;2022-08-04T06:46:07;26.50;98.80
37310;DHT22;23195;47.744;7.358;2022-08-04T06:48:36;26.70;98.90
37310;DHT22;23195;47.744;7.358;2022-08-04T06:51:02;27.00;98.60
37310;DHT22;23195;47.744;7.358;2022-08-04T06:53:28;27.50;97.00
37310;DHT22;23195;47.744;7.358;2022-08-04T06:55:56;29.10;93.80
37310;DHT22;23195;47.744;7.358;2022-08-04T06:58:23;31.30;90.00
37310;DHT22;23195;47.744;7.358;2022-08-04T07:00:52;33.30;81.80
37310;DHT22;23195;47.744;7.358;2022-08-04T07:03:30;35.30;73.90
37310;DHT22;23195;47.744;7.358;2022-08-04T07:06:04;36.90;68.50
37310;DHT22;23195;47.744;7.358;2022-08-04T07:08:31;38.30;61.80
37310;DHT22;23195;47.744;7.358;2022-08-04T07:10:58;38.30;60.00
37310;DHT22;23195;47.744;7.358;2022-08-04T07:13:27;38.70;58.20
37310;DHT22;23195;47.744;7.358;2022-08-04T07:16:03;39.30;55.90
37310;DHT22;23195;47.744;7.358;2022-08-04T07:18:46;40.00;54.80
37310;DHT22;23195;47.744;7.358;2022-08-04T07:21:24;39.90;52.80
37310;DHT22;23195;47.744;7.358;2022-08-04T07:23:52;40.90;51.90
37310;DHT22;23195;47.744;7.358;2022-08-04T07:26:29;41.30;51.40
37310;DHT22;23195;47.744;7.358;2022-08-04T07:32:04;42.40;49.80
37310;DHT22;23195;47.744;7.358;2022-08-04T07:34:51;41.90;48.90
37310;DHT22;23195;47.744;7.358;2022-08-04T07:41:34;42.80;48.00
37310;DHT22;23195;47.744;7.358;2022-08-04T07:44:13;42.50;47.60
37310;DHT22;23195;47.744;7.358;2022-08-04T07:46:39;42.90;47.70
37310;DHT22;23195;47.744;7.358;2022-08-04T07:49:28;42.70;47.50
37310;DHT22;23195;47.744;7.358;2022-08-04T07:51:54;42.40;47.50
37310;DHT22;23195;47.744;7.358;2022-08-04T07:54:20;42.40;47.00
37310;DHT22;23195;47.744;7.358;2022-08-04T07:59:39;42.10;46.00
37310;DHT22;23195;47.744;7.358;2022-08-04T08:02:07;42.90;45.70
37310;DHT22;23195;47.744;7.358;2022-08-04T08:04:38;43.30;44.60
37310;DHT22;23195;47.744;7.358;2022-08-04T08:07:04;43.60;43.90
37310;DHT22;23195;47.744;7.358;2022-08-04T08:09:39;43.70;43.10
37310;DHT22;23195;47.744;7.358;2022-08-04T08:12:06;43.50;42.60
37310;DHT22;23195;47.744;7.358;2022-08-04T08:14:37;43.20;42.90
37310;DHT22;23195;47.744;7.358;2022-08-04T08:17:06;42.30;43.40
37310;DHT22;23195;47.744;7.358;2022-08-04T08:19:33;41.90;44.00
37310;DHT22;23195;47.744;7.358;2022-08-04T08:22:06;42.10;43.90
37310;DHT22;23195;47.744;7.358;2022-08-04T08:24:35;41.60;45.10
37310;DHT22;23195;47.744;7.358;2022-08-04T08:27:03;41.90;44.30
37310;DHT22;23195;47.744;7.358;2022-08-04T08:29:35;42.10;44.20
37310;DHT22;23195;47.744;7.358;2022-08-04T08:32:03;42.60;43.40
37310;DHT22;23195;47.744;7.358;2022-08-04T08:34:31;42.90;43.00
37310;DHT22;23195;47.744;7.358;2022-08-04T08:37:08;43.30;42.70
37310;DHT22;23195;47.744;7.358;2022-08-04T08:40:00;43.20;42.60
37310;DHT22;23195;47.744;7.358;2022-08-04T08:51:28;41.90;42.70
37310;DHT22;23195;47.744;7.358;2022-08-04T08:57:15;41.60;43.80
37310;DHT22;23195;47.744;7.358;2022-08-04T09:05:56;41.50;44.00
37310;DHT22;23195;47.744;7.358;2022-08-04T09:21:10;40.80;43.90
37310;DHT22;23195;47.744;7.358;2022-08-04T09:26:55;40.30;43.40
37310;DHT22;23195;47.744;7.358;2022-08-04T09:29:52;39.90;43.50
37310;DHT22;23195;47.744;7.358;2022-08-04T09:46:52;38.50;44.60
37310;DHT22;23195;47.744;7.358;2022-08-04T09:49:51;37.90;44.90
37310;DHT22;23195;47.744;7.358;2022-08-04T10:02:06;34.90;47.60
37310;DHT22;23195;47.744;7.358;2022-08-04T10:04:44;35.10;47.70
37310;DHT22;23195;47.744;7.358;2022-08-04T10:23:13;34.80;50.10
37310;DHT22;23195;47.744;7.358;2022-08-04T10:28:50;34.80;50.20
37310;DHT22;23195;47.744;7.358;2022-08-04T10:31:44;34.90;50.00
37310;DHT22;23195;47.744;7.358;2022-08-04T10:34:18;34.80;50.20
37310;DHT22;23195;47.744;7.358;2022-08-04T10:40:16;34.90;48.50
37310;DHT22;23195;47.744;7.358;2022-08-04T10:46:56;35.00;48.00
37310;DHT22;23195;47.744;7.358;2022-08-04T10:49:35;34.90;49.20
37310;DHT22;23195;47.744;7.358;2022-08-04T10:55:22;34.80;47.60
37310;DHT22;23195;47.744;7.358;2022-08-04T10:58:07;34.90;47.00
37310;DHT22;23195;47.744;7.358;2022-08-04T11:00:35;34.90;47.00
37310;DHT22;23195;47.744;7.358;2022-08-04T11:03:34;35.00;46.10
37310;DHT22;23195;47.744;7.358;2022-08-04T11:06:09;35.00;46.10
37310;DHT22;23195;47.744;7.358;2022-08-04T11:08:43;35.10;47.20
37310;DHT22;23195;47.744;7.358;2022-08-04T11:11:19;35.30;47.00
37310;DHT22;23195;47.744;7.358;2022-08-04T11:16:26;35.40;46.60
37310;DHT22;23195;47.744;7.358;2022-08-04T11:19:10;35.50;45.70
37310;DHT22;23195;47.744;7.358;2022-08-04T11:21:56;35.50;46.30
37310;DHT22;23195;47.744;7.358;2022-08-04T11:27:32;35.70;46.40
37310;DHT22;23195;47.744;7.358;2022-08-04T11:30:08;35.60;46.30
37310;DHT22;23195;47.744;7.358;2022-08-04T11:32:52;35.70;46.40
37310;DHT22;23195;47.744;7.358;2022-08-04T11:35:39;35.70;45.70
37310;DHT22;23195;47.744;7.358;2022-08-04T11:41:25;35.70;45.70
37310;DHT22;23195;47.744;7.358;2022-08-04T11:47:23;35.60;45.60
37310;DHT22;23195;47.744;7.358;2022-08-04T11:53:17;35.50;45.60
37310;DHT22;23195;47.744;7.358;2022-08-04T11:56:09;35.80;45.60
37310;DHT22;23195;47.744;7.358;2022-08-04T11:58:44;35.70;45.70
37310;DHT22;23195;47.744;7.358;2022-08-04T12:01:34;35.70;45.60
37310;DHT22;23195;47.744;7.358;2022-08-04T12:07:06;35.90;46.30
37310;DHT22;23195;47.744;7.358;2022-08-04T12:12:24;36.00;45.70
37310;DHT22;23195;47.744;7.358;2022-08-04T12:18:09;36.10;45.30
37310;DHT22;23195;47.744;7.358;2022-08-04T12:21:04;36.00;44.40
37310;DHT22;23195;47.744;7.358;2022-08-04T12:23:37;36.00;44.90
37310;DHT22;23195;47.744;7.358;2022-08-04T12:26:09;36.10;44.80
37310;DHT22;23195;47.744;7.358;2022-08-04T12:29:00;36.20;45.20
37310;DHT22;23195;47.744;7.358;2022-08-04T12:31:59;36.20;45.10
37310;DHT22;23195;47.744;7.358;2022-08-04T12:34:48;36.30;43.40
37310;DHT22;23195;47.744;7.358;2022-08-04T12:40:52;36.30;41.10
37310;DHT22;23195;47.744;7.358;2022-08-04T12:43:41;36.20;41.60
37310;DHT22;23195;47.744;7.358;2022-08-04T12:46:37;36.40;44.10
37310;DHT22;23195;47.744;7.358;2022-08-04T12:49:13;36.70;41.60
37310;DHT22;23195;47.744;7.358;2022-08-04T12:55:12;36.70;41.60
37310;DHT22;23195;47.744;7.358;2022-08-04T12:57:52;36.50;42.70
37310;DHT22;23195;47.744;7.358;2022-08-04T13:00:36;36.50;42.40
37310;DHT22;23195;47.744;7.358;2022-08-04T13:03:35;36.50;42.60
37310;DHT22;23195;47.744;7.358;2022-08-04T13:06:13;36.40;42.90
37310;DHT22;23195;47.744;7.358;2022-08-04T13:23:31;36.60;41.00
37310;DHT22;23195;47.744;7.358;2022-08-04T13:26:20;36.60;41.20
37310;DHT22;23195;47.744;7.358;2022-08-04T13:29:39;36.60;40.90
37310;DHT22;23195;47.744;7.358;2022-08-04T13:38:15;36.60;41.50
37310;DHT22;23195;47.744;7.358;2022-08-04T13:40:45;36.40;41.30
37310;DHT22;23195;47.744;7.358;2022-08-04T13:44:02;36.40;41.10
37310;DHT22;23195;47.744;7.358;2022-08-04T13:46:54;36.40;41.40
37310;DHT22;23195;47.744;7.358;2022-08-04T13:50:04;36.40;40.80
37310;DHT22;23195;47.744;7.358;2022-08-04T13:52:51;36.50;40.90
37310;DHT22;23195;47.744;7.358;2022-08-04T13:58:24;36.60;40.80
37310;DHT22;23195;47.744;7.358;2022-08-04T14:01:02;36.70;41.10
37310;DHT22;23195;47.744;7.358;2022-08-04T14:04:14;36.80;41.50
37310;DHT22;23195;47.744;7.358;2022-08-04T14:07:24;36.90;40.40
37310;DHT22;23195;47.744;7.358;2022-08-04T14:13:05;36.90;40.50
37310;DHT22;23195;47.744;7.358;2022-08-04T14:16:03;36.70;40.50
37310;DHT22;23195;47.744;7.358;2022-08-04T14:27:55;36.80;41.00
37310;DHT22;23195;47.744;7.358;2022-08-04T14:30:37;37.10;40.80
37310;DHT22;23195;47.744;7.358;2022-08-04T14:39:57;37.10;41.10
37310;DHT22;23195;47.744;7.358;2022-08-04T14:42:13;37.20;40.90
37310;DHT22;23195;47.744;7.358;2022-08-04T14:45:00;37.30;40.80
37310;DHT22;23195;47.744;7.358;2022-08-04T14:51:44;37.30;40.10
37310;DHT22;23195;47.744;7.358;2022-08-04T14:54:31;37.30;40.50
37310;DHT22;23195;47.744;7.358;2022-08-04T14:57:23;37.30;40.70
37310;DHT22;23195;47.744;7.358;2022-08-04T14:59:59;37.00;39.60
37310;DHT22;23195;47.744;7.358;2022-08-04T15:02:27;37.30;40.00
37310;DHT22;23195;47.744;7.358;2022-08-04T15:05:02;37.20;39.40
37310;DHT22;23195;47.744;7.358;2022-08-04T15:10:54;37.30;39.80
37310;DHT22;23195;47.744;7.358;2022-08-04T15:13:56;37.30;40.10
37310;DHT22;23195;47.744;7.358;2022-08-04T15:16:41;37.30;40.00
37310;DHT22;23195;47.744;7.358;2022-08-04T15:19:10;37.50;40.20
37310;DHT22;23195;47.744;7.358;2022-08-04T15:28:16;37.50;39.40
37310;DHT22;23195;47.744;7.358;2022-08-04T15:37:48;37.40;39.60
37310;DHT22;23195;47.744;7.358;2022-08-04T16:14:29;37.30;38.50
37310;DHT22;23195;47.744;7.358;2022-08-04T16:17:39;37.10;38.10
37310;DHT22;23195;47.744;7.358;2022-08-04T16:35:00;36.20;39.50
37310;DHT22;23195;47.744;7.358;2022-08-04T16:37:46;36.00;40.10
37310;DHT22;23195;47.744;7.358;2022-08-04T16:50:48;36.00;40.60
37310;DHT22;23195;47.744;7.358;2022-08-04T17:25:49;36.90;38.50
37310;DHT22;23195;47.744;7.358;2022-08-04T17:38:24;36.40;39.50
37310;DHT22;23195;47.744;7.358;2022-08-04T17:44:37;36.00;41.30
37310;DHT22;23195;47.744;7.358;2022-08-04T17:50:43;35.70;42.10
37310;DHT22;23195;47.744;7.358;2022-08-04T17:53:38;35.70;42.50
37310;DHT22;23195;47.744;7.358;2022-08-04T18:03:30;35.30;42.90
37310;DHT22;23195;47.744;7.358;2022-08-04T18:09:57;35.10;45.60
37310;DHT22;23195;47.744;7.358;2022-08-04T18:16:23;34.70;47.20
37310;DHT22;23195;47.744;7.358;2022-08-04T18:22:42;34.30;48.20
37310;DHT22;23195;47.744;7.358;2022-08-04T18:29:25;34.40;49.00
37310;DHT22;23195;47.744;7.358;2022-08-04T18:32:28;34.00;49.20
37310;DHT22;23195;47.744;7.358;2022-08-04T18:50:12;33.40;51.20
37310;DHT22;23195;47.744;7.358;2022-08-04T18:57:06;33.10;51.00
37310;DHT22;23195;47.744;7.358;2022-08-04T19:00:26;33.40;52.20
37310;DHT22;23195;47.744;7.358;2022-08-04T19:21:16;32.30;53.00
37310;DHT22;23195;47.744;7.358;2022-08-04T19:27:17;32.00;53.70
37310;DHT22;23195;47.744;7.358;2022-08-04T19:30:03;31.90;53.70
37310;DHT22;23195;47.744;7.358;2022-08-04T19:32:39;31.70;53.90
37310;DHT22;23195;47.744;7.358;2022-08-04T19:35:11;31.60;54.20
37310;DHT22;23195;47.744;7.358;2022-08-04T19:37:43;31.50;54.10
37310;DHT22;23195;47.744;7.358;2022-08-04T19:40:20;31.40;54.50
37310;DHT22;23195;47.744;7.358;2022-08-04T19:42:51;31.30;54.80
37310;DHT22;23195;47.744;7.358;2022-08-04T19:45:30;31.10;55.40
37310;DHT22;23195;47.744;7.358;2022-08-04T19:48:02;31.10;55.50
37310;DHT22;23195;47.744;7.358;2022-08-04T19:50:39;30.90;55.80
37310;DHT22;23195;47.744;7.358;2022-08-04T19:53:10;30.80;56.20
37310;DHT22;23195;47.744;7.358;2022-08-04T19:58:33;30.90;56.40
37310;DHT22;23195;47.744;7.358;2022-08-04T20:01:12;30.60;56.40
37310;DHT22;23195;47.744;7.358;2022-08-04T20:03:38;30.40;56.90
37310;DHT22;23195;47.744;7.358;2022-08-04T20:06:13;30.40;57.10
37310;DHT22;23195;47.744;7.358;2022-08-04T20:08:39;30.50;57.30
37310;DHT22;23195;47.744;7.358;2022-08-04T20:11:07;30.40;57.20
37310;DHT22;23195;47.744;7.358;2022-08-04T20:13:38;30.40;57.40
37310;DHT22;23195;47.744;7.358;2022-08-04T20:16:09;30.40;57.30
37310;DHT22;23195;47.744;7.358;2022-08-04T20:18:37;30.40;57.40
37310;DHT22;23195;47.744;7.358;2022-08-04T20:21:04;30.40;57.30
37310;DHT22;23195;47.744;7.358;2022-08-04T20:23:30;30.40;57.80
37310;DHT22;23195;47.744;7.358;2022-08-04T20:25:56;30.40;57.90
37310;DHT22;23195;47.744;7.358;2022-08-04T20:28:26;30.30;57.50
37310;DHT22;23195;47.744;7.358;2022-08-04T20:30:55;30.20;57.60
37310;DHT22;23195;47.744;7.358;2022-08-04T20:33:48;30.40;57.70
37310;DHT22;23195;47.744;7.358;2022-08-04T20:37:14;30.20;58.00
37310;DHT22;23195;47.744;7.358;2022-08-04T20:39:56;30.10;58.30
37310;DHT22;23195;47.744;7.358;2022-08-04T20:49:57;29.90;59.70
37310;DHT22;23195;47.744;7.358;2022-08-04T20:52:40;28.80;59.40
37310;DHT22;23195;47.744;7.358;2022-08-04T21:06:06;29.10;63.30
37310;DHT22;23195;47.744;7.358;2022-08-04T21:12:22;28.80;64.90
37310;DHT22;23195;47.744;7.358;2022-08-04T21:15:14;28.70;64.20
37310;DHT22;23195;47.744;7.358;2022-08-04T21:18:04;28.70;64.90
37310;DHT22;23195;47.744;7.358;2022-08-04T21:21:05;28.60;65.30
37310;DHT22;23195;47.744;7.358;2022-08-04T21:23:41;28.40;65.00
37310;DHT22;23195;47.744;7.358;2022-08-04T21:26:08;28.40;64.90
37310;DHT22;23195;47.744;7.358;2022-08-04T21:29:00;28.40;65.20
37310;DHT22;23195;47.744;7.358;2022-08-04T21:31:29;28.30;65.90
37310;DHT22;23195;47.744;7.358;2022-08-04T21:33:58;28.20;65.90
37310;DHT22;23195;47.744;7.358;2022-08-04T21:36:36;28.20;66.50
37310;DHT22;23195;47.744;7.358;2022-08-04T21:39:24;27.70;65.90
37310;DHT22;23195;47.744;7.358;2022-08-04T21:41:55;28.10;66.30
37310;DHT22;23195;47.744;7.358;2022-08-04T21:44:21;28.00;66.60
37310;DHT22;23195;47.744;7.358;2022-08-04T21:46:49;28.00;67.00
37310;DHT22;23195;47.744;7.358;2022-08-04T21:49:19;27.90;67.40
37310;DHT22;23195;47.744;7.358;2022-08-04T21:51:47;27.80;67.70
37310;DHT22;23195;47.744;7.358;2022-08-04T21:54:13;27.80;68.40
37310;DHT22;23195;47.744;7.358;2022-08-04T21:56:39;27.70;67.70
37310;DHT22;23195;47.744;7.358;2022-08-04T21:59:09;27.70;68.30
37310;DHT22;23195;47.744;7.358;2022-08-04T22:01:43;27.70;68.60
37310;DHT22;23195;47.744;7.358;2022-08-04T22:04:24;27.60;69.70
37310;DHT22;23195;47.744;7.358;2022-08-04T22:06:52;27.60;68.70
37310;DHT22;23195;47.744;7.358;2022-08-04T22:09:25;27.50;68.80
37310;DHT22;23195;47.744;7.358;2022-08-04T22:12:01;27.30;68.10
37310;DHT22;23195;47.744;7.358;2022-08-04T22:14:38;28.30;69.10
37310;DHT22;23195;47.744;7.358;2022-08-04T22:17:14;27.20;68.50
37310;DHT22;23195;47.744;7.358;2022-08-04T22:19:49;27.40;69.20
37310;DHT22;23195;47.744;7.358;2022-08-04T22:22:15;27.70;70.10
37310;DHT22;23195;47.744;7.358;2022-08-04T22:24:43;27.30;69.90
37310;DHT22;23195;47.744;7.358;2022-08-04T22:27:25;27.90;71.20
37310;DHT22;23195;47.744;7.358;2022-08-04T22:30:17;27.20;70.70
37310;DHT22;23195;47.744;7.358;2022-08-04T22:32:46;27.10;71.30
37310;DHT22;23195;47.744;7.358;2022-08-04T22:35:28;27.00;71.60
37310;DHT22;23195;47.744;7.358;2022-08-04T22:38:05;27.00;72.50
37310;DHT22;23195;47.744;7.358;2022-08-04T22:40:31;26.90;72.50
37310;DHT22;23195;47.744;7.358;2022-08-04T22:43:00;26.50;72.30
37310;DHT22;23195;47.744;7.358;2022-08-04T22:45:28;26.80;73.10
37310;DHT22;23195;47.744;7.358;2022-08-04T22:47:57;26.40;73.10
37310;DHT22;23195;47.744;7.358;2022-08-04T22:51:23;26.70;73.50
37310;DHT22;23195;47.744;7.358;2022-08-04T22:53:42;26.70;74.10
37310;DHT22;23195;47.744;7.358;2022-08-04T22:56:08;26.70;74.90
37310;DHT22;23195;47.744;7.358;2022-08-04T22:58:43;26.50;74.30
37310;DHT22;23195;47.744;7.358;2022-08-04T23:01:35;26.20;74.00
37310;DHT22;23195;47.744;7.358;2022-08-04T23:04:28;26.30;74.00
37310;DHT22;23195;47.744;7.358;2022-08-04T23:07:02;26.50;74.10
37310;DHT22;23195;47.744;7.358;2022-08-04T23:09:49;26.70;75.20
37310;DHT22;23195;47.744;7.358;2022-08-04T23:12:20;26.40;75.60
37310;DHT22;23195;47.744;7.358;2022-08-04T23:14:51;26.40;76.40
37310;DHT22;23195;47.744;7.358;2022-08-04T23:17:21;26.80;76.10
37310;DHT22;23195;47.744;7.358;2022-08-04T23:19:47;26.40;75.40
37310;DHT22;23195;47.744;7.358;2022-08-04T23:25:06;25.60;74.70
37310;DHT22;23195;47.744;7.358;2022-08-04T23:28:00;26.60;74.40
37310;DHT22;23195;47.744;7.358;2022-08-04T23:30:31;26.60;74.80
37310;DHT22;23195;47.744;7.358;2022-08-04T23:33:10;26.50;75.40
37310;DHT22;23195;47.744;7.358;2022-08-04T23:35:36;26.50;75.80
37310;DHT22;23195;47.744;7.358;2022-08-04T23:38:09;26.40;75.60
37310;DHT22;23195;47.744;7.358;2022-08-04T23:40:36;26.30;75.80
37310;DHT22;23195;47.744;7.358;2022-08-04T23:43:07;26.30;76.00
37310;DHT22;23195;47.744;7.358;2022-08-04T23:45:41;26.80;76.50
37310;DHT22;23195;47.744;7.358;2022-08-04T23:48:28;25.90;76.20
37310;DHT22;23195;47.744;7.358;2022-08-04T23:51:03;26.20;76.90
37310;DHT22;23195;47.744;7.358;2022-08-04T23:53:29;25.70;76.60
37310;DHT22;23195;47.744;7.358;2022-08-04T23:55:55;26.20;77.80
37310;DHT22;23195;47.744;7.358;2022-08-04T23:58:26;26.00;77.20
